Rice, Minnesota
Current Conditions -  °F | °C
As of 9:57 AM on Friday 24 Oct 2014 (Local Time) from KLXL Reporting Station
Clear Clear  
Wind Chill: 52°   Ceiling: Unl
Heat Index: 52°   Visibility: 10mi
Dew Point: 41°   Wind: 8mph
Humidity: 67%   Direction: 150°SSE
Pressure: 29.84"   Gusts: NA
Location:  45.75°N, 94.22°W
Report Text: KLXL 241457Z AUTO 15007KT 10SM CLR 11/05 A2984 RMK AO2
Loading
Personal Weather Stations






























Interactive Weather Map
Tropical Storm Tracking
New forecast layout! Learn more

10-Day Weather Forecast

Advertisements
Track Severe Weather on mobile